sensor_id;sensor_type;location;lat;lon;timestamp;temperature;humidity
2657;DHT22;1338;48.176;11.792;2024-03-23T00:54:15;8.90;99.90
2657;DHT22;1338;48.176;11.792;2024-03-23T00:56:43;8.80;99.90
2657;DHT22;1338;48.176;11.792;2024-03-23T00:59:09;8.70;99.90
2657;DHT22;1338;48.176;11.792;2024-03-23T01:01:36;8.60;99.90
2657;DHT22;1338;48.176;11.792;2024-03-23T01:04:02;8.50;99.90
2657;DHT22;1338;48.176;11.792;2024-03-23T01:06:30;8.50;99.90
2657;DHT22;1338;48.176;11.792;2024-03-23T01:08:56;8.50;99.90
2657;DHT22;1338;48.176;11.792;2024-03-23T01:11:24;8.50;98.50
2657;DHT22;1338;48.176;11.792;2024-03-23T01:13:51;8.70;48.60
2657;DHT22;1338;48.176;11.792;2024-03-23T01:16:20;8.70;1.00
2657;DHT22;1338;48.176;11.792;2024-03-23T01:18:47;8.70;1.00
2657;DHT22;1338;48.176;11.792;2024-03-23T01:21:14;8.60;1.00
2657;DHT22;1338;48.176;11.792;2024-03-23T01:23:40;8.60;1.00
2657;DHT22;1338;48.176;11.792;2024-03-23T01:26:08;8.50;1.00
2657;DHT22;1338;48.176;11.792;2024-03-23T01:28:36;8.30;1.00
2657;DHT22;1338;48.176;11.792;2024-03-23T01:31:03;8.30;1.00
2657;DHT22;1338;48.176;11.792;2024-03-23T01:33:29;8.10;1.00
2657;DHT22;1338;48.176;11.792;2024-03-23T01:35:56;8.00;36.50
2657;DHT22;1338;48.176;11.792;2024-03-23T01:38:23;8.00;70.50
2657;DHT22;1338;48.176;11.792;2024-03-23T01:40:56;7.90;94.30
2657;DHT22;1338;48.176;11.792;2024-03-23T01:43:23;8.10;96.10
2657;DHT22;1338;48.176;11.792;2024-03-23T01:45:52;8.10;36.40
2657;DHT22;1338;48.176;11.792;2024-03-23T01:48:19;8.00;18.60
2657;DHT22;1338;48.176;11.792;2024-03-23T01:50:47;7.90;15.20
2657;DHT22;1338;48.176;11.792;2024-03-23T01:53:14;7.70;80.50
2657;DHT22;1338;48.176;11.792;2024-03-23T01:55:43;7.70;99.90
2657;DHT22;1338;48.176;11.792;2024-03-23T01:58:09;7.70;99.90
2657;DHT22;1338;48.176;11.792;2024-03-23T02:00:37;7.50;99.90
2657;DHT22;1338;48.176;11.792;2024-03-23T02:03:22;7.60;99.90
2657;DHT22;1338;48.176;11.792;2024-03-23T02:05:49;7.70;99.90
2657;DHT22;1338;48.176;11.792;2024-03-23T02:08:16;7.80;99.90
2657;DHT22;1338;48.176;11.792;2024-03-23T02:10:44;7.80;82.40
2657;DHT22;1338;48.176;11.792;2024-03-23T02:13:10;7.90;6.90
2657;DHT22;1338;48.176;11.792;2024-03-23T02:15:38;8.00;1.00
2657;DHT22;1338;48.176;11.792;2024-03-23T02:18:07;8.10;1.00
2657;DHT22;1338;48.176;11.792;2024-03-23T02:20:34;8.10;1.00
2657;DHT22;1338;48.176;11.792;2024-03-23T02:23:02;8.20;1.00
2657;DHT22;1338;48.176;11.792;2024-03-23T02:25:30;8.20;1.00
2657;DHT22;1338;48.176;11.792;2024-03-23T02:27:56;8.10;1.00
2657;DHT22;1338;48.176;11.792;2024-03-23T02:30:24;8.00;1.00
2657;DHT22;1338;48.176;11.792;2024-03-23T02:32:51;8.00;1.00
2657;DHT22;1338;48.176;11.792;2024-03-23T02:35:18;8.00;1.00
2657;DHT22;1338;48.176;11.792;2024-03-23T02:37:46;7.90;1.00
2657;DHT22;1338;48.176;11.792;2024-03-23T02:40:16;7.70;1.00
2657;DHT22;1338;48.176;11.792;2024-03-23T02:42:42;7.60;1.00
2657;DHT22;1338;48.176;11.792;2024-03-23T02:45:10;7.50;1.00
2657;DHT22;1338;48.176;11.792;2024-03-23T02:47:36;7.30;26.90
2657;DHT22;1338;48.176;11.792;2024-03-23T02:50:04;7.30;91.80
2657;DHT22;1338;48.176;11.792;2024-03-23T02:52:30;7.30;99.90
2657;DHT22;1338;48.176;11.792;2024-03-23T02:54:58;7.30;99.90
2657;DHT22;1338;48.176;11.792;2024-03-23T02:57:26;7.20;99.90
2657;DHT22;1338;48.176;11.792;2024-03-23T02:59:54;7.20;99.90
2657;DHT22;1338;48.176;11.792;2024-03-23T03:02:20;7.30;99.90
2657;DHT22;1338;48.176;11.792;2024-03-23T03:04:47;7.20;99.90
2657;DHT22;1338;48.176;11.792;2024-03-23T03:07:14;7.20;99.90
2657;DHT22;1338;48.176;11.792;2024-03-23T03:09:41;7.20;99.90
2657;DHT22;1338;48.176;11.792;2024-03-23T03:12:07;7.20;99.90
2657;DHT22;1338;48.176;11.792;2024-03-23T03:14:36;7.20;99.90
2657;DHT22;1338;48.176;11.792;2024-03-23T03:17:02;7.20;99.90
2657;DHT22;1338;48.176;11.792;2024-03-23T03:19:30;7.10;99.90
2657;DHT22;1338;48.176;11.792;2024-03-23T03:21:56;7.10;99.90
2657;DHT22;1338;48.176;11.792;2024-03-23T03:24:23;7.20;99.90
2657;DHT22;1338;48.176;11.792;2024-03-23T03:26:50;7.10;99.90
2657;DHT22;1338;48.176;11.792;2024-03-23T03:29:17;7.10;99.90
2657;DHT22;1338;48.176;11.792;2024-03-23T03:31:44;7.30;99.90
2657;DHT22;1338;48.176;11.792;2024-03-23T03:34:12;7.40;73.70
2657;DHT22;1338;48.176;11.792;2024-03-23T03:36:38;7.40;34.50
2657;DHT22;1338;48.176;11.792;2024-03-23T03:39:05;7.30;45.70
2657;DHT22;1338;48.176;11.792;2024-03-23T03:41:32;7.40;67.70
2657;DHT22;1338;48.176;11.792;2024-03-23T03:43:59;7.30;83.30
2657;DHT22;1338;48.176;11.792;2024-03-23T03:46:28;7.40;67.10
2657;DHT22;1338;48.176;11.792;2024-03-23T03:48:59;7.40;38.40
2657;DHT22;1338;48.176;11.792;2024-03-23T03:51:25;7.50;4.60
2657;DHT22;1338;48.176;11.792;2024-03-23T03:53:52;7.60;1.00
2657;DHT22;1338;48.176;11.792;2024-03-23T03:56:19;7.60;1.00
2657;DHT22;1338;48.176;11.792;2024-03-23T03:58:47;7.60;1.00
2657;DHT22;1338;48.176;11.792;2024-03-23T04:01:14;7.60;1.00
2657;DHT22;1338;48.176;11.792;2024-03-23T04:03:41;7.60;1.00
2657;DHT22;1338;48.176;11.792;2024-03-23T04:06:10;7.60;1.00
2657;DHT22;1338;48.176;11.792;2024-03-23T04:08:38;7.70;1.00
2657;DHT22;1338;48.176;11.792;2024-03-23T04:11:04;7.70;1.00
2657;DHT22;1338;48.176;11.792;2024-03-23T04:13:31;7.70;1.00
2657;DHT22;1338;48.176;11.792;2024-03-23T04:15:58;7.80;1.00
2657;DHT22;1338;48.176;11.792;2024-03-23T04:18:25;7.80;1.00
2657;DHT22;1338;48.176;11.792;2024-03-23T04:20:51;7.70;1.00
2657;DHT22;1338;48.176;11.792;2024-03-23T04:23:20;7.70;1.00
2657;DHT22;1338;48.176;11.792;2024-03-23T04:25:47;7.60;1.00
2657;DHT22;1338;48.176;11.792;2024-03-23T04:28:14;7.60;1.00
2657;DHT22;1338;48.176;11.792;2024-03-23T04:30:40;7.60;1.00
2657;DHT22;1338;48.176;11.792;2024-03-23T04:33:07;7.50;1.00
2657;DHT22;1338;48.176;11.792;2024-03-23T04:35:34;7.50;1.00
2657;DHT22;1338;48.176;11.792;2024-03-23T04:38:01;7.60;1.00
2657;DHT22;1338;48.176;11.792;2024-03-23T04:40:30;7.80;1.00
2657;DHT22;1338;48.176;11.792;2024-03-23T04:42:57;8.00;1.00
2657;DHT22;1338;48.176;11.792;2024-03-23T04:45:24;8.00;1.00
2657;DHT22;1338;48.176;11.792;2024-03-23T04:47:51;8.10;1.00
2657;DHT22;1338;48.176;11.792;2024-03-23T04:50:19;8.30;1.00
2657;DHT22;1338;48.176;11.792;2024-03-23T04:52:46;8.60;1.00
2657;DHT22;1338;48.176;11.792;2024-03-23T04:55:14;8.60;1.00
2657;DHT22;1338;48.176;11.792;2024-03-23T04:57:41;8.60;1.00
2657;DHT22;1338;48.176;11.792;2024-03-23T05:00:09;8.30;1.00
2657;DHT22;1338;48.176;11.792;2024-03-23T05:02:43;8.20;1.00
2657;DHT22;1338;48.176;11.792;2024-03-23T05:05:12;8.20;1.00
2657;DHT22;1338;48.176;11.792;2024-03-23T05:07:38;8.20;1.00
2657;DHT22;1338;48.176;11.792;2024-03-23T05:10:06;8.40;1.00
2657;DHT22;1338;48.176;11.792;2024-03-23T05:12:36;8.50;1.00
2657;DHT22;1338;48.176;11.792;2024-03-23T05:15:05;8.60;1.00
2657;DHT22;1338;48.176;11.792;2024-03-23T05:17:32;8.60;1.00
2657;DHT22;1338;48.176;11.792;2024-03-23T05:19:59;8.50;1.00
2657;DHT22;1338;48.176;11.792;2024-03-23T05:22:25;8.40;1.00
2657;DHT22;1338;48.176;11.792;2024-03-23T05:24:53;8.50;1.00
2657;DHT22;1338;48.176;11.792;2024-03-23T05:27:19;8.60;1.00
2657;DHT22;1338;48.176;11.792;2024-03-23T05:29:46;8.50;1.00
2657;DHT22;1338;48.176;11.792;2024-03-23T05:32:14;8.70;1.00
2657;DHT22;1338;48.176;11.792;2024-03-23T05:34:42;8.70;1.00
2657;DHT22;1338;48.176;11.792;2024-03-23T05:37:08;8.90;1.00
2657;DHT22;1338;48.176;11.792;2024-03-23T05:39:35;8.80;1.00
2657;DHT22;1338;48.176;11.792;2024-03-23T05:42:01;8.80;1.00
2657;DHT22;1338;48.176;11.792;2024-03-23T05:44:29;8.80;1.00
2657;DHT22;1338;48.176;11.792;2024-03-23T05:46:55;8.80;1.00
2657;DHT22;1338;48.176;11.792;2024-03-23T05:49:23;8.90;1.00
2657;DHT22;1338;48.176;11.792;2024-03-23T05:51:51;9.00;1.00
2657;DHT22;1338;48.176;11.792;2024-03-23T05:54:18;9.10;1.00
2657;DHT22;1338;48.176;11.792;2024-03-23T05:56:44;9.30;1.00
2657;DHT22;1338;48.176;11.792;2024-03-23T05:59:12;9.40;1.00
2657;DHT22;1338;48.176;11.792;2024-03-23T06:01:38;9.40;1.00
2657;DHT22;1338;48.176;11.792;2024-03-23T06:04:05;9.50;1.00
2657;DHT22;1338;48.176;11.792;2024-03-23T06:06:33;9.50;1.00
2657;DHT22;1338;48.176;11.792;2024-03-23T06:09:00;9.50;1.00
2657;DHT22;1338;48.176;11.792;2024-03-23T06:11:27;9.60;1.00
2657;DHT22;1338;48.176;11.792;2024-03-23T06:13:54;9.60;1.00
2657;DHT22;1338;48.176;11.792;2024-03-23T06:16:20;9.70;1.00
2657;DHT22;1338;48.176;11.792;2024-03-23T06:18:49;9.70;1.00
2657;DHT22;1338;48.176;11.792;2024-03-23T06:21:15;9.60;1.00
2657;DHT22;1338;48.176;11.792;2024-03-23T06:23:44;9.80;1.00
2657;DHT22;1338;48.176;11.792;2024-03-23T06:26:17;9.80;1.00
2657;DHT22;1338;48.176;11.792;2024-03-23T06:28:43;9.80;1.00
2657;DHT22;1338;48.176;11.792;2024-03-23T06:31:10;9.80;1.00
2657;DHT22;1338;48.176;11.792;2024-03-23T06:33:37;9.90;1.00
2657;DHT22;1338;48.176;11.792;2024-03-23T06:36:05;10.00;1.00
2657;DHT22;1338;48.176;11.792;2024-03-23T06:38:31;10.20;1.00
2657;DHT22;1338;48.176;11.792;2024-03-23T06:41:02;10.20;1.00
2657;DHT22;1338;48.176;11.792;2024-03-23T06:43:28;10.30;1.00
2657;DHT22;1338;48.176;11.792;2024-03-23T06:45:56;10.40;1.00
2657;DHT22;1338;48.176;11.792;2024-03-23T06:48:22;10.50;1.00
2657;DHT22;1338;48.176;11.792;2024-03-23T06:50:54;10.60;1.00
2657;DHT22;1338;48.176;11.792;2024-03-23T06:53:21;10.80;1.00
2657;DHT22;1338;48.176;11.792;2024-03-23T06:55:50;11.00;1.00
2657;DHT22;1338;48.176;11.792;2024-03-23T06:58:19;11.30;1.00
2657;DHT22;1338;48.176;11.792;2024-03-23T07:00:46;11.30;1.00
2657;DHT22;1338;48.176;11.792;2024-03-23T07:03:12;11.50;1.00
2657;DHT22;1338;48.176;11.792;2024-03-23T07:05:40;11.60;1.00
2657;DHT22;1338;48.176;11.792;2024-03-23T07:08:06;11.80;1.00
2657;DHT22;1338;48.176;11.792;2024-03-23T07:10:34;11.90;1.00
2657;DHT22;1338;48.176;11.792;2024-03-23T07:13:01;12.00;1.00
2657;DHT22;1338;48.176;11.792;2024-03-23T07:15:30;12.20;1.00
2657;DHT22;1338;48.176;11.792;2024-03-23T07:17:56;12.50;1.00
2657;DHT22;1338;48.176;11.792;2024-03-23T07:20:23;12.50;1.00
2657;DHT22;1338;48.176;11.792;2024-03-23T07:22:49;12.70;1.00
2657;DHT22;1338;48.176;11.792;2024-03-23T07:25:17;13.00;1.00
2657;DHT22;1338;48.176;11.792;2024-03-23T07:27:43;13.20;1.00
2657;DHT22;1338;48.176;11.792;2024-03-23T07:30:10;13.50;1.00
2657;DHT22;1338;48.176;11.792;2024-03-23T07:32:38;13.60;99.90
2657;DHT22;1338;48.176;11.792;2024-03-23T07:35:05;13.60;99.90
2657;DHT22;1338;48.176;11.792;2024-03-23T07:37:32;13.70;99.90
2657;DHT22;1338;48.176;11.792;2024-03-23T07:39:59;13.70;99.90
2657;DHT22;1338;48.176;11.792;2024-03-23T07:42:25;13.80;99.90
2657;DHT22;1338;48.176;11.792;2024-03-23T07:44:52;13.70;99.90
2657;DHT22;1338;48.176;11.792;2024-03-23T07:47:20;13.80;99.90
2657;DHT22;1338;48.176;11.792;2024-03-23T07:49:49;13.80;99.90
2657;DHT22;1338;48.176;11.792;2024-03-23T07:52:15;13.80;99.90
2657;DHT22;1338;48.176;11.792;2024-03-23T07:54:42;13.60;99.90
2657;DHT22;1338;48.176;11.792;2024-03-23T07:57:08;13.40;99.90
2657;DHT22;1338;48.176;11.792;2024-03-23T07:59:36;13.30;99.90
2657;DHT22;1338;48.176;11.792;2024-03-23T08:02:02;12.40;1.00
2657;DHT22;1338;48.176;11.792;2024-03-23T08:04:29;12.10;1.00
2657;DHT22;1338;48.176;11.792;2024-03-23T08:06:57;11.60;99.90
2657;DHT22;1338;48.176;11.792;2024-03-23T08:09:25;11.50;1.00
2657;DHT22;1338;48.176;11.792;2024-03-23T08:11:51;11.30;1.00
2657;DHT22;1338;48.176;11.792;2024-03-23T08:14:18;11.30;1.00
2657;DHT22;1338;48.176;11.792;2024-03-23T08:16:45;10.80;1.00
2657;DHT22;1338;48.176;11.792;2024-03-23T08:19:14;10.50;1.00
2657;DHT22;1338;48.176;11.792;2024-03-23T08:21:41;10.30;99.90
2657;DHT22;1338;48.176;11.792;2024-03-23T08:24:09;10.40;99.90
2657;DHT22;1338;48.176;11.792;2024-03-23T08:26:36;10.20;1.00
2657;DHT22;1338;48.176;11.792;2024-03-23T08:29:04;10.20;1.00
2657;DHT22;1338;48.176;11.792;2024-03-23T08:31:30;10.00;1.00
2657;DHT22;1338;48.176;11.792;2024-03-23T08:33:58;9.90;1.00
2657;DHT22;1338;48.176;11.792;2024-03-23T08:36:24;9.50;62.20
2657;DHT22;1338;48.176;11.792;2024-03-23T08:38:51;9.40;99.90
2657;DHT22;1338;48.176;11.792;2024-03-23T08:41:21;8.60;99.90
2657;DHT22;1338;48.176;11.792;2024-03-23T08:43:48;7.80;1.00
2657;DHT22;1338;48.176;11.792;2024-03-23T08:46:15;8.00;1.00
2657;DHT22;1338;48.176;11.792;2024-03-23T08:48:44;8.10;1.00
2657;DHT22;1338;48.176;11.792;2024-03-23T08:51:12;8.10;1.00
2657;DHT22;1338;48.176;11.792;2024-03-23T08:53:39;8.10;1.00
2657;DHT22;1338;48.176;11.792;2024-03-23T08:56:09;8.00;1.00
2657;DHT22;1338;48.176;11.792;2024-03-23T08:58:38;8.00;1.00
2657;DHT22;1338;48.176;11.792;2024-03-23T09:01:06;8.00;1.00
2657;DHT22;1338;48.176;11.792;2024-03-23T09:03:33;8.00;1.00
2657;DHT22;1338;48.176;11.792;2024-03-23T09:06:02;7.80;1.00
2657;DHT22;1338;48.176;11.792;2024-03-23T09:08:29;7.90;1.00
2657;DHT22;1338;48.176;11.792;2024-03-23T09:10:55;7.80;1.00
2657;DHT22;1338;48.176;11.792;2024-03-23T09:13:22;7.80;1.00
2657;DHT22;1338;48.176;11.792;2024-03-23T09:15:52;7.80;1.00
2657;DHT22;1338;48.176;11.792;2024-03-23T09:18:22;7.70;1.00
2657;DHT22;1338;48.176;11.792;2024-03-23T09:20:48;7.70;1.00
2657;DHT22;1338;48.176;11.792;2024-03-23T09:23:15;7.60;1.00
2657;DHT22;1338;48.176;11.792;2024-03-23T09:25:42;7.60;1.00
2657;DHT22;1338;48.176;11.792;2024-03-23T09:28:09;7.60;99.90
2657;DHT22;1338;48.176;11.792;2024-03-23T09:30:36;7.50;99.90
2657;DHT22;1338;48.176;11.792;2024-03-23T09:33:10;7.50;99.90
2657;DHT22;1338;48.176;11.792;2024-03-23T09:35:37;7.50;36.10
2657;DHT22;1338;48.176;11.792;2024-03-23T09:38:04;7.50;99.90
2657;DHT22;1338;48.176;11.792;2024-03-23T09:40:33;7.50;1.00
2657;DHT22;1338;48.176;11.792;2024-03-23T09:42:59;7.80;1.00
2657;DHT22;1338;48.176;11.792;2024-03-23T09:45:27;7.70;1.00
2657;DHT22;1338;48.176;11.792;2024-03-23T09:47:55;7.60;99.90
2657;DHT22;1338;48.176;11.792;2024-03-23T09:50:23;7.70;1.00
2657;DHT22;1338;48.176;11.792;2024-03-23T09:52:50;7.60;99.90
2657;DHT22;1338;48.176;11.792;2024-03-23T09:55:19;7.60;1.00
2657;DHT22;1338;48.176;11.792;2024-03-23T09:57:45;7.60;1.00
2657;DHT22;1338;48.176;11.792;2024-03-23T10:00:13;7.60;1.00
2657;DHT22;1338;48.176;11.792;2024-03-23T10:02:40;7.40;99.90
2657;DHT22;1338;48.176;11.792;2024-03-23T10:05:20;7.50;24.40
2657;DHT22;1338;48.176;11.792;2024-03-23T10:07:48;7.50;99.90
2657;DHT22;1338;48.176;11.792;2024-03-23T10:10:16;7.40;99.90
2657;DHT22;1338;48.176;11.792;2024-03-23T10:12:46;7.40;1.00
2657;DHT22;1338;48.176;11.792;2024-03-23T10:15:19;7.30;1.00
2657;DHT22;1338;48.176;11.792;2024-03-23T10:17:46;7.20;99.90
2657;DHT22;1338;48.176;11.792;2024-03-23T10:20:18;7.00;25.00
2657;DHT22;1338;48.176;11.792;2024-03-23T10:22:47;6.80;1.00
2657;DHT22;1338;48.176;11.792;2024-03-23T10:25:15;6.70;84.20
2657;DHT22;1338;48.176;11.792;2024-03-23T10:27:42;6.60;99.90
2657;DHT22;1338;48.176;11.792;2024-03-23T10:30:12;6.60;99.90
2657;DHT22;1338;48.176;11.792;2024-03-23T10:32:39;6.50;1.00
2657;DHT22;1338;48.176;11.792;2024-03-23T10:35:16;6.40;99.90
2657;DHT22;1338;48.176;11.792;2024-03-23T10:37:44;6.50;99.90
2657;DHT22;1338;48.176;11.792;2024-03-23T10:40:15;6.50;1.00
2657;DHT22;1338;48.176;11.792;2024-03-23T10:42:41;6.50;1.00
2657;DHT22;1338;48.176;11.792;2024-03-23T10:45:09;6.50;1.00
2657;DHT22;1338;48.176;11.792;2024-03-23T10:47:36;6.60;1.00
2657;DHT22;1338;48.176;11.792;2024-03-23T10:50:05;6.70;1.00
2657;DHT22;1338;48.176;11.792;2024-03-23T10:52:31;6.80;99.90
2657;DHT22;1338;48.176;11.792;2024-03-23T10:55:00;6.70;99.90
2657;DHT22;1338;48.176;11.792;2024-03-23T10:57:34;6.70;99.90
2657;DHT22;1338;48.176;11.792;2024-03-23T11:00:03;6.60;99.90
2657;DHT22;1338;48.176;11.792;2024-03-23T11:02:30;6.40;1.00
2657;DHT22;1338;48.176;11.792;2024-03-23T11:04:57;6.40;99.90
2657;DHT22;1338;48.176;11.792;2024-03-23T11:07:30;6.00;99.90
2657;DHT22;1338;48.176;11.792;2024-03-23T11:09:59;6.30;1.00
2657;DHT22;1338;48.176;11.792;2024-03-23T11:12:30;6.40;99.90
2657;DHT22;1338;48.176;11.792;2024-03-23T11:15:04;6.50;1.00
2657;DHT22;1338;48.176;11.792;2024-03-23T11:17:31;6.50;1.00
2657;DHT22;1338;48.176;11.792;2024-03-23T11:19:59;6.40;1.00
2657;DHT22;1338;48.176;11.792;2024-03-23T11:22:44;6.30;1.00
2657;DHT22;1338;48.176;11.792;2024-03-23T11:25:17;6.20;1.00
2657;DHT22;1338;48.176;11.792;2024-03-23T11:27:46;6.50;1.00
2657;DHT22;1338;48.176;11.792;2024-03-23T11:30:14;6.80;1.00
2657;DHT22;1338;48.176;11.792;2024-03-23T11:32:42;6.90;1.00
2657;DHT22;1338;48.176;11.792;2024-03-23T11:35:09;7.10;99.90
2657;DHT22;1338;48.176;11.792;2024-03-23T11:37:37;7.00;1.00
2657;DHT22;1338;48.176;11.792;2024-03-23T11:40:17;7.10;1.00
2657;DHT22;1338;48.176;11.792;2024-03-23T11:42:45;7.30;99.90
2657;DHT22;1338;48.176;11.792;2024-03-23T11:45:13;7.30;99.90
2657;DHT22;1338;48.176;11.792;2024-03-23T11:47:40;7.40;99.90
2657;DHT22;1338;48.176;11.792;2024-03-23T11:50:08;7.40;99.90
2657;DHT22;1338;48.176;11.792;2024-03-23T11:52:34;7.30;99.90
2657;DHT22;1338;48.176;11.792;2024-03-23T11:55:05;7.30;1.00
2657;DHT22;1338;48.176;11.792;2024-03-23T11:57:34;7.30;1.00
2657;DHT22;1338;48.176;11.792;2024-03-23T12:00:20;7.40;1.00
2657;DHT22;1338;48.176;11.792;2024-03-23T12:02:47;7.40;99.90
2657;DHT22;1338;48.176;11.792;2024-03-23T12:05:15;7.50;99.90
2657;DHT22;1338;48.176;11.792;2024-03-23T12:07:41;7.70;1.00
2657;DHT22;1338;48.176;11.792;2024-03-23T12:10:08;7.80;99.90
2657;DHT22;1338;48.176;11.792;2024-03-23T12:12:35;7.80;99.90
2657;DHT22;1338;48.176;11.792;2024-03-23T12:15:04;7.80;99.90
2657;DHT22;1338;48.176;11.792;2024-03-23T12:17:32;7.70;98.80
2657;DHT22;1338;48.176;11.792;2024-03-23T12:20:01;7.60;18.20
2657;DHT22;1338;48.176;11.792;2024-03-23T12:22:27;7.50;55.00
2657;DHT22;1338;48.176;11.792;2024-03-23T12:24:55;7.50;69.70
2657;DHT22;1338;48.176;11.792;2024-03-23T12:27:22;7.40;99.90
2657;DHT22;1338;48.176;11.792;2024-03-23T12:29:49;7.40;99.90
2657;DHT22;1338;48.176;11.792;2024-03-23T12:32:17;7.50;99.90
2657;DHT22;1338;48.176;11.792;2024-03-23T12:34:44;7.60;92.10
2657;DHT22;1338;48.176;11.792;2024-03-23T12:37:11;7.70;1.00
2657;DHT22;1338;48.176;11.792;2024-03-23T12:39:38;7.80;1.00
2657;DHT22;1338;48.176;11.792;2024-03-23T12:42:05;8.00;1.00
2657;DHT22;1338;48.176;11.792;2024-03-23T12:44:32;8.00;1.00
2657;DHT22;1338;48.176;11.792;2024-03-23T12:46:58;8.10;1.00
2657;DHT22;1338;48.176;11.792;2024-03-23T12:49:27;8.10;1.00
2657;DHT22;1338;48.176;11.792;2024-03-23T12:51:54;8.10;1.00
2657;DHT22;1338;48.176;11.792;2024-03-23T12:54:22;8.10;1.00
2657;DHT22;1338;48.176;11.792;2024-03-23T12:56:48;8.10;1.00
2657;DHT22;1338;48.176;11.792;2024-03-23T12:59:16;8.10;1.00
2657;DHT22;1338;48.176;11.792;2024-03-23T13:01:42;8.30;1.00
2657;DHT22;1338;48.176;11.792;2024-03-23T13:04:10;8.30;1.00
2657;DHT22;1338;48.176;11.792;2024-03-23T13:06:38;8.40;1.00
2657;DHT22;1338;48.176;11.792;2024-03-23T13:09:05;8.30;1.00
2657;DHT22;1338;48.176;11.792;2024-03-23T13:11:32;8.30;1.00
2657;DHT22;1338;48.176;11.792;2024-03-23T13:13:59;8.40;1.00
2657;DHT22;1338;48.176;11.792;2024-03-23T13:16:25;8.40;1.00
2657;DHT22;1338;48.176;11.792;2024-03-23T13:18:52;8.30;1.00
2657;DHT22;1338;48.176;11.792;2024-03-23T13:21:19;8.20;1.00
2657;DHT22;1338;48.176;11.792;2024-03-23T13:23:48;8.30;1.00
2657;DHT22;1338;48.176;11.792;2024-03-23T13:26:16;8.20;1.00
2657;DHT22;1338;48.176;11.792;2024-03-23T13:28:43;8.20;1.00
2657;DHT22;1338;48.176;11.792;2024-03-23T13:31:10;8.20;1.00
2657;DHT22;1338;48.176;11.792;2024-03-23T13:33:40;8.20;1.00
2657;DHT22;1338;48.176;11.792;2024-03-23T13:36:10;8.20;1.00
2657;DHT22;1338;48.176;11.792;2024-03-23T13:38:37;8.10;1.00
2657;DHT22;1338;48.176;11.792;2024-03-23T13:41:05;8.00;1.00
2657;DHT22;1338;48.176;11.792;2024-03-23T13:43:33;8.10;1.00
2657;DHT22;1338;48.176;11.792;2024-03-23T13:45:59;8.10;1.00
2657;DHT22;1338;48.176;11.792;2024-03-23T13:48:27;8.00;1.00
2657;DHT22;1338;48.176;11.792;2024-03-23T13:50:58;8.00;1.00
2657;DHT22;1338;48.176;11.792;2024-03-23T13:53:25;8.00;1.00
2657;DHT22;1338;48.176;11.792;2024-03-23T13:55:51;8.00;1.00
2657;DHT22;1338;48.176;11.792;2024-03-23T13:58:20;8.00;1.00
2657;DHT22;1338;48.176;11.792;2024-03-23T14:00:47;8.00;1.00
2657;DHT22;1338;48.176;11.792;2024-03-23T14:03:14;7.80;1.00
2657;DHT22;1338;48.176;11.792;2024-03-23T14:05:41;7.50;1.00
2657;DHT22;1338;48.176;11.792;2024-03-23T14:08:13;7.40;1.00
2657;DHT22;1338;48.176;11.792;2024-03-23T14:11:12;6.00;1.00
2657;DHT22;1338;48.176;11.792;2024-03-23T14:13:41;4.90;1.00
2657;DHT22;1338;48.176;11.792;2024-03-23T14:16:07;4.90;1.00
2657;DHT22;1338;48.176;11.792;2024-03-23T14:18:34;4.90;1.00
2657;DHT22;1338;48.176;11.792;2024-03-23T14:21:01;4.90;1.00
2657;DHT22;1338;48.176;11.792;2024-03-23T14:23:30;4.90;1.00
2657;DHT22;1338;48.176;11.792;2024-03-23T14:25:59;4.90;1.00
2657;DHT22;1338;48.176;11.792;2024-03-23T14:28:26;4.90;1.00
2657;DHT22;1338;48.176;11.792;2024-03-23T14:30:56;4.90;1.00
2657;DHT22;1338;48.176;11.792;2024-03-23T14:33:23;5.00;1.00
2657;DHT22;1338;48.176;11.792;2024-03-23T14:35:53;5.00;1.00
2657;DHT22;1338;48.176;11.792;2024-03-23T14:38:21;5.10;1.00
2657;DHT22;1338;48.176;11.792;2024-03-23T14:40:47;5.30;1.00
2657;DHT22;1338;48.176;11.792;2024-03-23T14:43:15;5.30;1.00
2657;DHT22;1338;48.176;11.792;2024-03-23T14:46:07;5.30;1.00
2657;DHT22;1338;48.176;11.792;2024-03-23T14:48:36;5.40;1.00
2657;DHT22;1338;48.176;11.792;2024-03-23T14:51:03;5.50;1.00
2657;DHT22;1338;48.176;11.792;2024-03-23T14:53:32;5.60;1.00
2657;DHT22;1338;48.176;11.792;2024-03-23T14:55:58;5.80;1.00
2657;DHT22;1338;48.176;11.792;2024-03-23T14:58:27;5.90;1.00
2657;DHT22;1338;48.176;11.792;2024-03-23T15:00:53;6.00;1.00
2657;DHT22;1338;48.176;11.792;2024-03-23T15:03:28;6.00;1.00
2657;DHT22;1338;48.176;11.792;2024-03-23T15:05:55;5.90;1.00
2657;DHT22;1338;48.176;11.792;2024-03-23T15:08:22;6.00;1.00
2657;DHT22;1338;48.176;11.792;2024-03-23T15:10:49;5.90;1.00
2657;DHT22;1338;48.176;11.792;2024-03-23T15:13:16;5.90;1.00
2657;DHT22;1338;48.176;11.792;2024-03-23T15:15:44;5.90;1.00
2657;DHT22;1338;48.176;11.792;2024-03-23T15:18:14;5.90;1.00
2657;DHT22;1338;48.176;11.792;2024-03-23T15:20:52;5.80;1.00
2657;DHT22;1338;48.176;11.792;2024-03-23T15:23:19;5.70;1.00
2657;DHT22;1338;48.176;11.792;2024-03-23T15:25:45;5.70;1.00
2657;DHT22;1338;48.176;11.792;2024-03-23T15:28:13;5.40;1.00
2657;DHT22;1338;48.176;11.792;2024-03-23T15:30:40;5.10;1.00
2657;DHT22;1338;48.176;11.792;2024-03-23T15:33:07;5.00;1.00
2657;DHT22;1338;48.176;11.792;2024-03-23T15:35:33;4.90;1.00
2657;DHT22;1338;48.176;11.792;2024-03-23T15:38:02;4.90;1.00
2657;DHT22;1338;48.176;11.792;2024-03-23T15:40:29;4.90;1.00
2657;DHT22;1338;48.176;11.792;2024-03-23T15:42:56;4.90;1.00
2657;DHT22;1338;48.176;11.792;2024-03-23T15:45:23;4.90;1.00
2657;DHT22;1338;48.176;11.792;2024-03-23T15:47:49;5.10;1.00
2657;DHT22;1338;48.176;11.792;2024-03-23T15:50:18;5.20;1.00
2657;DHT22;1338;48.176;11.792;2024-03-23T15:52:44;5.20;7.40
2657;DHT22;1338;48.176;11.792;2024-03-23T15:55:13;5.10;1.00
2657;DHT22;1338;48.176;11.792;2024-03-23T15:57:40;5.20;68.00
2657;DHT22;1338;48.176;11.792;2024-03-23T16:00:08;5.10;14.40
2657;DHT22;1338;48.176;11.792;2024-03-23T16:02:38;5.10;19.20
2657;DHT22;1338;48.176;11.792;2024-03-23T16:05:06;5.30;97.60
2657;DHT22;1338;48.176;11.792;2024-03-23T16:07:34;5.60;91.60
2657;DHT22;1338;48.176;11.792;2024-03-23T16:10:01;5.80;99.90
2657;DHT22;1338;48.176;11.792;2024-03-23T16:12:32;5.90;36.10
2657;DHT22;1338;48.176;11.792;2024-03-23T16:15:00;6.30;1.00
2657;DHT22;1338;48.176;11.792;2024-03-23T16:17:26;6.60;5.50
2657;DHT22;1338;48.176;11.792;2024-03-23T16:19:53;6.80;1.00
2657;DHT22;1338;48.176;11.792;2024-03-23T16:22:19;6.90;1.00
2657;DHT22;1338;48.176;11.792;2024-03-23T16:24:47;6.70;1.00
2657;DHT22;1338;48.176;11.792;2024-03-23T16:27:13;7.10;1.00
2657;DHT22;1338;48.176;11.792;2024-03-23T16:29:42;6.20;1.00
2657;DHT22;1338;48.176;11.792;2024-03-23T16:32:08;5.60;1.00
2657;DHT22;1338;48.176;11.792;2024-03-23T16:34:36;5.60;1.00
2657;DHT22;1338;48.176;11.792;2024-03-23T16:37:02;5.60;99.90
2657;DHT22;1338;48.176;11.792;2024-03-23T16:39:30;5.60;99.90
2657;DHT22;1338;48.176;11.792;2024-03-23T16:41:56;5.40;99.90
2657;DHT22;1338;48.176;11.792;2024-03-23T16:44:23;5.30;99.90
2657;DHT22;1338;48.176;11.792;2024-03-23T16:46:50;5.40;99.90
2657;DHT22;1338;48.176;11.792;2024-03-23T16:49:18;5.30;99.90
2657;DHT22;1338;48.176;11.792;2024-03-23T16:51:44;5.30;99.90
2657;DHT22;1338;48.176;11.792;2024-03-23T16:54:11;5.30;99.90
2657;DHT22;1338;48.176;11.792;2024-03-23T16:56:38;5.30;99.90
2657;DHT22;1338;48.176;11.792;2024-03-23T16:59:05;5.40;99.90
2657;DHT22;1338;48.176;11.792;2024-03-23T17:01:31;5.50;99.90
2657;DHT22;1338;48.176;11.792;2024-03-23T17:04:01;5.40;99.90
2657;DHT22;1338;48.176;11.792;2024-03-23T17:06:27;5.20;99.90